Terminal Aerodrome Forecast
Issued by NWS

Home | Current Version | Previous Version | Text Only | Print | Product List | Glossary On
Versions: 1 2 3 4 5 6 7 8 9 10 11 12 13 14 15 16
042
FTUS42 KMLB 222340
TAFSFB
TAF
KSFB 222340Z 2300/2324 07010KT P6SM FEW050
     FM230100 09005KT P6SM FEW050
     FM230600 VRB03KT P6SM FEW020 BKN250
     FM231500 08004KT P6SM SCT025 SCT250
     FM231800 07007KT P6SM SCT040 SCT250=

USA.gov is the U.S. government's official web portal to all federal, state and local government web resources and services.